| time (UTC) | temp F | wind direction | speed MPH | gust MPH | rain 1hr in | rain 24hr in | rain mn in | humidity % | barometer mb |
| 20260906170735 | 88 | 150 | 4.0 | 4.0 | 0.00 | 0.00 | 0.00 | 72 | 1019.8 |
| 20260906170230 | 87 | 153 | 7.0 | 8.0 | 0.00 | 0.00 | 0.00 | 74 | 1019.8 |
| 20260906165727 | 87 | 131 | 9.0 | 10.0 | 0.00 | 0.00 | 0.00 | 73 | 1019.7 |
| 20260906165227 | 86 | 98 | 6.0 | 7.0 | 0.00 | 0.00 | 0.00 | 75 | 1019.9 |
| 20260906164726 | 87 | 110 | 7.0 | 8.0 | 0.00 | 0.00 | 0.00 | 73 | 1019.8 |
| 20260906164227 | 86 | 121 | 7.0 | 8.0 | 0.00 | 0.00 | 0.00 | 74 | 1019.7 |
| 20260906163723 | 86 | 126 | 6.0 | 6.0 | 0.00 | 0.00 | 0.00 | 76 | 1019.7 |
| 20260906163219 | 86 | 111 | 8.0 | 9.0 | 0.00 | 0.00 | 0.00 | 77 | 1019.8 |
| 20260906162716 | 86 | 155 | 5.0 | 6.0 | 0.00 | 0.00 | 0.00 | 76 | 1020.1 |
| 20260906162216 | 85 | 136 | 8.0 | 9.0 | 0.00 | 0.00 | 0.00 | 78 | 1019.9 |
| 20260906161710 | 84 | 92 | 3.0 | 4.0 | 0.00 | 0.00 | 0.00 | 79 | 1019.9 |
| 20260906161210 | 84 | 133 | 4.0 | 4.0 | 0.00 | 0.00 | 0.00 | 78 | 1020.1 |
| 20260906160709 | 84 | 85 | 4.0 | 4.0 | 0.00 | 0.00 | 0.00 | 79 | 1019.9 |
| 20260906160208 | 83 | 144 | 8.0 | 8.0 | 0.00 | 0.00 | 0.00 | 81 | 1020.1 |
| 20260906155706 | 82 | 116 | 8.0 | 8.0 | 0.00 | 0.00 | 0.00 | 81 | 1020.2 |
| 20260906155201 | 82 | 126 | 9.0 | 9.0 | 0.00 | 0.00 | 0.00 | 82 | 1020.1 |
| 20260906154656 | 81 | 112 | 7.0 | 8.0 | 0.00 | 0.00 | 0.00 | 85 | 1020.3 |
| 20260906154156 | 81 | 116 | 9.0 | 9.0 | 0.00 | 0.00 | 0.00 | 84 | 1020.1 |
| 20260906153655 | 81 | 93 | 5.0 | 6.0 | 0.00 | 0.00 | 0.00 | 85 | 1020.1 |
| 20260906153156 | 81 | 120 | 7.0 | 8.0 | 0.00 | 0.00 | 0.00 | 84 | 1019.9 |
| 20260906152651 | 80 | 99 | 7.0 | 8.0 | 0.00 | 0.00 | 0.00 | 87 | 1020.0 |
| 20260906152150 | 80 | 119 | 5.0 | 6.0 | 0.00 | 0.00 | 0.00 | 86 | 1019.9 |
| 20260906151645 | 80 | 133 | 4.0 | 4.0 | 0.00 | 0.00 | 0.00 | 88 | 1020.2 |
| 20260906151141 | 80 | 127 | 9.0 | 9.0 | 0.00 | 0.00 | 0.00 | 86 | 1019.9 |
| 20260906150636 | 80 | 112 | 8.0 | 9.0 | 0.00 | 0.00 | 0.00 | 88 | 1020.0 |
| 20260906150131 | 80 | 121 | 6.0 | 7.0 | 0.00 | 0.00 | 0.00 | 87 | 1020.2 |
| 20260906145630 | 80 | 122 | 6.0 | 7.0 | 0.00 | 0.00 | 0.00 | 88 | 1020.1 |
| 20260906145125 | 79 | 115 | 5.0 | 6.0 | 0.00 | 0.00 | 0.00 | 89 | 1020.2 |
| 20260906144620 | 79 | 109 | 4.0 | 4.0 | 0.00 | 0.00 | 0.00 | 90 | 1020.6 |
| 20260906144115 | 78 | 114 | 6.0 | 7.0 | 0.00 | 0.00 | 0.00 | 90 | 1020.6 |
| 20260906143614 | 78 | 124 | 4.0 | 4.0 | 0.00 | 0.00 | 0.00 | 90 | 1020.6 |
| 20260906143112 | 78 | 125 | 6.0 | 6.0 | 0.00 | 0.00 | 0.00 | 90 | 1020.5 |
| 20260906142610 | 78 | 34 | 6.0 | 7.0 | 0.00 | 0.00 | 0.00 | 90 | 1020.5 |
| 20260906142106 | 78 | 105 | 3.0 | 4.0 | 0.00 | 0.00 | 0.00 | 91 | 1020.6 |
| 20260906141604 | 78 | 146 | 3.0 | 3.0 | 0.00 | 0.00 | 0.00 | 92 | 1020.3 |
| 20260906141100 | 78 | 99 | 5.0 | 6.0 | 0.00 | 0.00 | 0.00 | 92 | 1020.1 |
| 20260906140559 | 78 | 124 | 4.0 | 4.0 | 0.00 | 0.00 | 0.00 | 92 | 1020.5 |
| 20260906140054 | 78 | 144 | 9.0 | 11.0 | 0.00 | 0.00 | 0.00 | 92 | 1020.3 |
| 20260906135551 | 77 | 128 | 5.0 | 7.0 | 0.00 | 0.00 | 0.00 | 93 | 1020.5 |
| 20260906135047 | 77 | 132 | 6.0 | 7.0 | 0.00 | 0.00 | 0.00 | 93 | 1020.2 |
| 20260906134542 | 77 | 126 | 6.0 | 7.0 | 0.00 | 0.00 | 0.00 | 93 | 1020.3 |
| 20260906134037 | 77 | 126 | 7.0 | 8.0 | 0.00 | 0.00 | 0.00 | 93 | 1020.2 |
| 20260906133533 | 77 | 127 | 6.0 | 7.0 | 0.00 | 0.00 | 0.00 | 93 | 1020.2 |
| 20260906133028 | 77 | 149 | 8.0 | 8.0 | 0.00 | 0.00 | 0.00 | 93 | 1020.2 |
| 20260906132523 | 77 | 128 | 6.0 | 7.0 | 0.00 | 0.00 | 0.00 | 94 | 1020.0 |
| 20260906132019 | 77 | 115 | 8.0 | 9.0 | 0.00 | 0.00 | 0.00 | 94 | 1020.0 |
| 20260906131514 | 77 | 83 | 6.0 | 7.0 | 0.00 | 0.00 | 0.00 | 94 | 1020.0 |
| 20260906131010 | 77 | 101 | 6.0 | 7.0 | 0.00 | 0.00 | 0.00 | 94 | 1020.2 |
| 20260906130509 | 77 | 125 | 4.0 | 4.0 | 0.00 | 0.00 | 0.00 | 95 | 1020.0 |
| 20260906130004 | 77 | 137 | 6.0 | 7.0 | 0.00 | 0.00 | 0.00 | 95 | 1020.0 |
| 20260906125501 | 77 | 137 | 5.0 | 7.0 | 0.00 | 0.00 | 0.00 | 95 | 1020.0 |
| 20260906125001 | 77 | 113 | 6.0 | 8.0 | 0.00 | 0.00 | 0.00 | 95 | 1020.0 |
| 20260906124456 | 77 | 124 | 6.0 | 7.0 | 0.00 | 0.00 | 0.00 | 95 | 1020.0 |
| 20260906123951 | 77 | 124 | 5.0 | 6.0 | 0.00 | 0.00 | 0.00 | 95 | 1019.9 |
| 20260906123450 | 76 | 141 | 6.0 | 6.0 | 0.00 | 0.00 | 0.00 | 96 | 1019.8 |
| 20260906122950 | 76 | 135 | 5.0 | 6.0 | 0.00 | 0.00 | 0.00 | 96 | 1019.8 |
| 20260906122445 | 76 | 117 | 4.0 | 6.0 | 0.00 | 0.00 | 0.00 | 96 | 1019.7 |
| 20260906121942 | 76 | 63 | 3.0 | 3.0 | 0.00 | 0.00 | 0.00 | 96 | 1019.6 |
| 20260906121438 | 76 | 96 | 8.0 | 8.0 | 0.00 | 0.00 | 0.00 | 96 | 1019.5 |
| 20260906120934 | 76 | 128 | 6.0 | 6.0 | 0.00 | 0.00 | 0.00 | 96 | 1019.5 |
| 20260906120429 | 76 | 133 | 7.0 | 8.0 | 0.00 | 0.00 | 0.00 | 96 | 1019.4 |
| 20260906115925 | 76 | 107 | 5.0 | 6.0 | 0.00 | 0.00 | 0.00 | 96 | 1019.2 |
| 20260906115421 | 76 | 138 | 5.0 | 6.0 | 0.00 | 0.00 | 0.00 | 96 | 1019.3 |
| 20260906114921 | 76 | 130 | 4.0 | 4.0 | 0.00 | 0.00 | 0.00 | 96 | 1019.3 |
| 20260906114421 | 76 | 130 | 6.0 | 6.0 | 0.00 | 0.00 | 0.00 | 96 | 1019.0 |
| 20260906113917 | 76 | 127 | 9.0 | 9.0 | 0.00 | 0.00 | 0.00 | 96 | 1019.1 |
| 20260906113415 | 76 | 112 | 4.0 | 6.0 | 0.00 | 0.00 | 0.00 | 96 | 1018.8 |
| 20260906112911 | 76 | 129 | 8.0 | 8.0 | 0.00 | 0.00 | 0.00 | 96 | 1018.8 |
| 20260906112406 | 76 | 136 | 4.0 | 4.0 | 0.00 | 0.00 | 0.00 | 96 | 1019.0 |
| 20260906111901 | 76 | 115 | 4.0 | 4.0 | 0.00 | 0.00 | 0.00 | 96 | 1019.2 |
| 20260906111401 | 76 | 103 | 5.0 | 4.0 | 0.00 | 0.00 | 0.00 | 96 | 1019.2 |
| 20260906110856 | 76 | 136 | 6.0 | 7.0 | 0.00 | 0.00 | 0.00 | 96 | 1019.1 |
| 20260906110351 | 76 | 124 | 7.0 | 8.0 | 0.00 | 0.00 | 0.00 | 96 | 1019.0 |
| 20260906105850 | 76 | 96 | 4.0 | 4.0 | 0.00 | 0.00 | 0.00 | 96 | 1018.8 |
| 20260906105346 | 76 | 119 | 5.0 | 7.0 | 0.00 | 0.00 | 0.00 | 96 | 1018.9 |
| 20260906104842 | 76 | 98 | 5.0 | 6.0 | 0.00 | 0.00 | 0.00 | 96 | 1018.9 |
| 20260906104340 | 76 | 92 | 5.0 | 7.0 | 0.00 | 0.00 | 0.00 | 96 | 1018.9 |
| 20260906103839 | 76 | 125 | 6.0 | 7.0 | 0.00 | 0.00 | 0.00 | 96 | 1018.7 |
| 20260906103338 | 76 | 115 | 6.0 | 8.0 | 0.00 | 0.00 | 0.00 | 96 | 1018.8 |
| 20260906102834 | 76 | 119 | 5.0 | 6.0 | 0.00 | 0.00 | 0.00 | 96 | 1018.8 |
| 20260906102332 | 76 | 107 | 4.0 | 4.0 | 0.00 | 0.00 | 0.00 | 96 | 1018.9 |
| 20260906101828 | 76 | 109 | 5.0 | 6.0 | 0.00 | 0.00 | 0.00 | 96 | 1018.6 |
| 20260906101323 | 76 | 103 | 3.0 | 3.0 | 0.00 | 0.00 | 0.00 | 96 | 1018.7 |
| 20260906100819 | 76 | 131 | 3.0 | 3.0 | 0.00 | 0.00 | 0.00 | 96 | 1018.9 |
| 20260906100317 | 76 | 118 | 2.0 | 2.0 | 0.00 | 0.00 | 0.00 | 96 | 1018.6 |
| 20260906095813 | 76 | 122 | 3.0 | 3.0 | 0.00 | 0.00 | 0.00 | 96 | 1018.8 |
| 20260906095308 | 76 | 119 | 2.0 | 2.0 | 0.00 | 0.00 | 0.00 | 96 | 1018.6 |
| 20260906094807 | 76 | 96 | 1.0 | 1.0 | 0.00 | 0.00 | 0.00 | 96 | 1018.9 |
| 20260906094302 | 76 | 117 | 4.0 | 3.0 | 0.00 | 0.00 | 0.00 | 96 | 1018.7 |
| 20260906093759 | 76 | 105 | 1.0 | 2.0 | 0.00 | 0.00 | 0.00 | 96 | 1018.6 |
| 20260906093254 | 76 | 126 | 3.0 | 3.0 | 0.00 | 0.00 | 0.00 | 96 | 1018.6 |
| 20260906092750 | 76 | 93 | 2.0 | 2.0 | 0.00 | 0.00 | 0.00 | 96 | 1018.5 |
| 20260906092250 | 76 | 111 | 2.0 | 3.0 | 0.00 | 0.00 | 0.00 | 96 | 1018.5 |
| 20260906091745 | 76 | 108 | 2.0 | 2.0 | 0.00 | 0.00 | 0.00 | 95 | 1018.3 |
| 20260906091241 | 76 | 98 | 3.0 | 3.0 | 0.00 | 0.00 | 0.00 | 95 | 1018.2 |
| 20260906090738 | 76 | 120 | 1.0 | 1.0 | 0.00 | 0.00 | 0.00 | 95 | 1018.1 |
| 20260906090237 | 76 | 101 | 3.0 | 3.0 | 0.00 | 0.00 | 0.00 | 95 | 1018.3 |
| 20260906085736 | 76 | 102 | 0.0 | 0.0 | 0.00 | 0.00 | 0.00 | 95 | 1018.1 |
| 20260906085235 | 76 | 122 | 1.0 | 2.0 | 0.00 | 0.00 | 0.00 | 94 | 1018.1 |
| 20260906084731 | 76 | 123 | 2.0 | 2.0 | 0.00 | 0.00 | 0.00 | 94 | 1018.0 |
| 20260906084231 | 77 | 119 | 4.0 | 4.0 | 0.00 | 0.00 | 0.00 | 94 | 1017.9 |
| 20260906083725 | 77 | 129 | 3.0 | 3.0 | 0.00 | 0.00 | 0.00 | 94 | 1018.1 |
| 20260906083221 | 77 | 140 | 3.0 | 3.0 | 0.00 | 0.00 | 0.00 | 94 | 1018.1 |
| 20260906082716 | 77 | 151 | 2.0 | 2.0 | 0.00 | 0.00 | 0.00 | 93 | 1018.1 |
| 20260906082211 | 77 | 143 | 3.0 | 3.0 | 0.00 | 0.00 | 0.00 | 93 | 1018.0 |
| 20260906081707 | 77 | 129 | 1.0 | 1.0 | 0.00 | 0.00 | 0.00 | 93 | 1018.0 |
| 20260906081202 | 77 | 135 | 2.0 | 2.0 | 0.00 | 0.00 | 0.00 | 93 | 1018.1 |
| 20260906080658 | 77 | 107 | 1.0 | 1.0 | 0.00 | 0.00 | 0.00 | 93 | 1018.0 |
| 20260906080154 | 77 | 118 | 2.0 | 2.0 | 0.00 | 0.00 | 0.00 | 93 | 1018.2 |
| 20260906075654 | 77 | 119 | 3.0 | 3.0 | 0.00 | 0.00 | 0.00 | 92 | 1017.9 |
| 20260906075148 | 77 | 109 | 6.0 | 6.0 | 0.00 | 0.00 | 0.00 | 92 | 1017.8 |
| 20260906074644 | 77 | 105 | 3.0 | 3.0 | 0.00 | 0.00 | 0.00 | 92 | 1018.1 |
| 20260906074143 | 77 | 109 | 3.0 | 6.0 | 0.00 | 0.00 | 0.00 | 92 | 1018.1 |
| 20260906073637 | 77 | 105 | 3.0 | 3.0 | 0.00 | 0.00 | 0.00 | 91 | 1018.2 |
| 20260906073133 | 77 | 90 | 4.0 | 4.0 | 0.00 | 0.00 | 0.00 | 91 | 1018.1 |
| 20260906072628 | 77 | 94 | 4.0 | 4.0 | 0.00 | 0.00 | 0.00 | 91 | 1018.0 |
| 20260906072124 | 77 | 96 | 1.0 | 1.0 | 0.00 | 0.00 | 0.00 | 91 | 1018.2 |
| 20260906071621 | 77 | 79 | 3.0 | 3.0 | 0.00 | 0.00 | 0.00 | 91 | 1018.0 |
| 20260906071121 | 77 | 88 | 2.0 | 2.0 | 0.00 | 0.00 | 0.00 | 90 | 1018.0 |
| 20260906070617 | 78 | 103 | 3.0 | 3.0 | 0.00 | 0.00 | 0.00 | 90 | 1018.2 |
| 20260906070113 | 77 | 97 | 3.0 | 4.0 | 0.00 | 0.00 | 0.00 | 90 | 1018.2 |
| 20260906065612 | 78 | 99 | 1.0 | 1.0 | 0.00 | 0.00 | 0.00 | 90 | 1018.2 |
| 20260906065108 | 78 | 120 | 2.0 | 3.0 | 0.00 | 0.00 | 0.00 | 90 | 1018.2 |
| 20260906064603 | 78 | 146 | 1.0 | 1.0 | 0.00 | 0.00 | 0.00 | 89 | 1018.2 |
| 20260906064058 | 78 | 147 | 1.0 | 1.0 | 0.00 | 0.00 | 0.00 | 89 | 1018.3 |
| 20260906063553 | 78 | 147 | 0.0 | 0.0 | 0.00 | 0.00 | 0.00 | 88 | 1018.3 |
| 20260906063050 | 78 | 147 | 0.0 | 0.0 | 0.00 | 0.00 | 0.00 | 88 | 1018.3 |
| 20260906062545 | 78 | 147 | 1.0 | 1.0 | 0.00 | 0.00 | 0.00 | 88 | 1018.3 |
| 20260906062044 | 78 | 147 | 1.0 | 1.0 | 0.00 | 0.00 | 0.00 | 88 | 1018.4 |
| 20260906061541 | 79 | 147 | 1.0 | 1.0 | 0.00 | 0.00 | 0.00 | 87 | 1018.4 |
| 20260906061039 | 79 | 147 | 2.0 | 2.0 | 0.00 | 0.00 | 0.00 | 87 | 1018.6 |
| 20260906060536 | 79 | 147 | 2.0 | 2.0 | 0.00 | 0.00 | 0.00 | 87 | 1018.6 |
| 20260906060033 | 79 | 145 | 2.0 | 2.0 | 0.00 | 0.00 | 0.00 | 87 | 1018.7 |
| 20260906055529 | 79 | 116 | 2.0 | 2.0 | 0.00 | 0.00 | 0.00 | 87 | 1018.4 |
| 20260906055024 | 79 | 116 | 2.0 | 2.0 | 0.00 | 0.00 | 0.00 | 87 | 1018.6 |
| 20260906054524 | 79 | 115 | 2.0 | 2.0 | 0.00 | 0.00 | 0.00 | 87 | 1018.7 |
| 20260906054019 | 79 | 115 | 2.0 | 3.0 | 0.00 | 0.00 | 0.00 | 87 | 1018.6 |
| 20260906053515 | 79 | 116 | 2.0 | 2.0 | 0.00 | 0.00 | 0.00 | 87 | 1018.5 |
| 20260906053011 | 79 | 115 | 2.0 | 2.0 | 0.00 | 0.00 | 0.00 | 87 | 1018.6 |
| 20260906052507 | 79 | 114 | 2.0 | 2.0 | 0.00 | 0.00 | 0.00 | 87 | 1018.5 |
| 20260906052004 | 79 | 116 | 1.0 | 1.0 | 0.00 | 0.00 | 0.00 | 87 | 1018.6 |
| 20260906051459 | 79 | 105 | 2.0 | 2.0 | 0.00 | 0.00 | 0.00 | 87 | 1018.5 |
| 20260906050954 | 79 | 115 | 2.0 | 2.0 | 0.00 | 0.00 | 0.00 | 86 | 1018.7 |
| 20260906050454 | 79 | 116 | 2.0 | 2.0 | 0.00 | 0.00 | 0.00 | 86 | 1018.4 |
| 20260906045953 | 79 | 111 | 2.0 | 2.0 | 0.00 | 0.00 | 0.00 | 86 | 1018.3 |
| 20260906045452 | 79 | 99 | 2.0 | 3.0 | 0.00 | 0.00 | 0.00 | 86 | 1018.3 |
| 20260906044948 | 79 | 109 | 1.0 | 2.0 | 0.00 | 0.00 | 0.00 | 86 | 1018.4 |
| 20260906044443 | 79 | 82 | 1.0 | 2.0 | 0.00 | 0.00 | 0.00 | 86 | 1018.3 |
| 20260906043939 | 79 | 78 | 2.0 | 2.0 | 0.00 | 0.00 | 0.00 | 86 | 1018.5 |
| 20260906043435 | 79 | 60 | 2.0 | 3.0 | 0.00 | 0.00 | 0.00 | 86 | 1018.3 |
| 20260906042930 | 79 | 53 | 2.0 | 2.0 | 0.00 | 0.00 | 0.00 | 85 | 1018.5 |
| 20260906042429 | 79 | 60 | 2.0 | 2.0 | 0.00 | 0.00 | 0.00 | 85 | 1018.3 |
| 20260906041924 | 79 | 59 | 4.0 | 3.0 | 0.00 | 0.00 | 0.00 | 84 | 1018.2 |
| 20260906041420 | 79 | 61 | 3.0 | 2.0 | 0.00 | 0.00 | 0.00 | 84 | 1018.1 |
| 20260906040920 | 79 | 60 | 3.0 | 3.0 | 0.00 | 0.00 | 0.00 | 83 | 1018.2 |
| 20260906040416 | 79 | 56 | 4.0 | 3.0 | 0.00 | 0.00 | 0.00 | 83 | 1018.0 |
| 20260906035911 | 79 | 61 | 3.0 | 3.0 | 0.00 | 0.00 | 0.00 | 83 | 1018.2 |
| 20260906035407 | 79 | 53 | 4.0 | 4.0 | 0.00 | 0.00 | 0.00 | 83 | 1017.9 |
| 20260906034902 | 79 | 45 | 3.0 | 3.0 | 0.00 | 0.00 | 0.00 | 82 | 1018.1 |
| 20260906034401 | 79 | 47 | 2.0 | 3.0 | 0.00 | 0.00 | 0.00 | 82 | 1017.9 |
| 20260906033858 | 79 | 52 | 3.0 | 3.0 | 0.00 | 0.00 | 0.00 | 82 | 1018.0 |
| 20260906033357 | 79 | 45 | 3.0 | 3.0 | 0.00 | 0.00 | 0.00 | 82 | 1017.8 |
| 20260906032853 | 79 | 49 | 2.0 | 2.0 | 0.00 | 0.00 | 0.00 | 82 | 1017.8 |
| 20260906032349 | 79 | 49 | 3.0 | 3.0 | 0.00 | 0.00 | 0.00 | 82 | 1017.8 |
| 20260906031844 | 79 | 49 | 3.0 | 3.0 | 0.00 | 0.00 | 0.00 | 82 | 1018.0 |
| 20260906031339 | 79 | 50 | 2.0 | 3.0 | 0.00 | 0.00 | 0.00 | 83 | 1017.7 |
| 20260906030839 | 78 | 35 | 2.0 | 2.0 | 0.00 | 0.00 | 0.00 | 84 | 1017.4 |
| 20260906030335 | 79 | 38 | 3.0 | 3.0 | 0.00 | 0.00 | 0.00 | 84 | 1017.7 |
| 20260906025835 | 79 | 109 | 2.0 | 2.0 | 0.00 | 0.00 | 0.00 | 82 | 1017.4 |
| 20260906025329 | 80 | 110 | 0.0 | 0.0 | 0.00 | 0.00 | 0.00 | 81 | 1017.4 |
| 20260906024828 | 80 | 110 | 0.0 | 0.0 | 0.00 | 0.00 | 0.00 | 79 | 1017.3 |
| 20260906024327 | 81 | 110 | 0.0 | 0.0 | 0.00 | 0.00 | 0.00 | 78 | 1017.2 |
| 20260906023823 | 81 | 110 | 0.0 | 0.0 | 0.00 | 0.00 | 0.00 | 78 | 1017.2 |
| 20260906023318 | 81 | 110 | 0.0 | 0.0 | 0.00 | 0.00 | 0.00 | 78 | 1017.1 |
| 20260906022814 | 81 | 110 | 0.0 | 0.0 | 0.00 | 0.00 | 0.00 | 78 | 1017.1 |
| 20260906022309 | 81 | 110 | 0.0 | 0.0 | 0.00 | 0.00 | 0.00 | 77 | 1017.0 |
| 20260906021805 | 81 | 110 | 0.0 | 0.0 | 0.00 | 0.00 | 0.00 | 77 | 1017.1 |
| 20260906021304 | 82 | 110 | 0.0 | 0.0 | 0.00 | 0.00 | 0.00 | 77 | 1017.1 |
| 20260906020759 | 82 | 110 | 0.0 | 0.0 | 0.00 | 0.00 | 0.00 | 76 | 1016.9 |
| 20260906020258 | 82 | 110 | 0.0 | 0.0 | 0.00 | 0.00 | 0.00 | 77 | 1016.7 |
| 20260906015758 | 81 | 110 | 0.0 | 0.0 | 0.00 | 0.00 | 0.00 | 77 | 1016.6 |
| 20260906015257 | 82 | 110 | 0.0 | 0.0 | 0.00 | 0.00 | 0.00 | 78 | 1016.6 |
| 20260906014751 | 82 | 110 | 0.0 | 0.0 | 0.00 | 0.00 | 0.00 | 78 | 1016.6 |
| 20260906014247 | 82 | 110 | 1.0 | 1.0 | 0.00 | 0.00 | 0.00 | 77 | 1016.5 |
| 20260906013743 | 82 | 110 | 1.0 | 1.0 | 0.00 | 0.00 | 0.00 | 76 | 1016.4 |
| 20260906013243 | 83 | 110 | 1.0 | 1.0 | 0.00 | 0.00 | 0.00 | 76 | 1016.5 |
| 20260906012739 | 83 | 110 | 1.0 | 1.0 | 0.00 | 0.00 | 0.00 | 74 | 1016.5 |
| 20260906012234 | 83 | 110 | 1.0 | 1.0 | 0.00 | 0.00 | 0.00 | 74 | 1016.3 |
| 20260906011729 | 83 | 110 | 2.0 | 2.0 | 0.00 | 0.00 | 0.00 | 73 | 1016.4 |
| 20260906011228 | 84 | 111 | 1.0 | 1.0 | 0.00 | 0.00 | 0.00 | 71 | 1016.3 |
| 20260906010724 | 85 | 111 | 1.0 | 1.0 | 0.00 | 0.00 | 0.00 | 69 | 1016.2 |
| 20260906010220 | 85 | 111 | 0.0 | 0.0 | 0.00 | 0.00 | 0.00 | 68 | 1016.3 |
| 20260906005715 | 86 | 111 | 0.0 | 0.0 | 0.00 | 0.00 | 0.00 | 67 | 1016.2 |
| 20260906005214 | 86 | 111 | 0.0 | 0.0 | 0.00 | 0.00 | 0.00 | 67 | 1016.2 |
| 20260906004713 | 87 | 111 | 0.0 | 0.0 | 0.00 | 0.00 | 0.00 | 65 | 1016.0 |
| 20260906004209 | 87 | 111 | 1.0 | 1.0 | 0.00 | 0.00 | 0.00 | 65 | 1016.1 |
| 20260906003704 | 87 | 111 | 2.0 | 2.0 | 0.00 | 0.00 | 0.00 | 64 | 1016.0 |
| 20260906003200 | 88 | 111 | 2.0 | 2.0 | 0.00 | 0.00 | 0.00 | 63 | 1016.0 |
| 20260906002659 | 88 | 111 | 2.0 | 2.0 | 0.00 | 0.00 | 0.00 | 63 | 1015.9 |
| 20260906002154 | 89 | 111 | 2.0 | 2.0 | 0.00 | 0.00 | 0.00 | 63 | 1016.0 |
| 20260906001650 | 89 | 110 | 3.0 | 2.0 | 0.00 | 0.00 | 0.00 | 62 | 1016.2 |
| 20260906001149 | 89 | 109 | 2.0 | 2.0 | 0.00 | 0.00 | 0.00 | 63 | 1016.0 |
| 20260906000645 | 89 | 109 | 2.0 | 2.0 | 0.00 | 0.00 | 0.00 | 62 | 1016.1 |
| 20260906000140 | 90 | 109 | 2.0 | 2.0 | 0.00 | 0.00 | 0.00 | 61 | 1016.1 |
| 20260905235639 | 90 | 128 | 3.0 | 3.0 | 0.00 | 0.00 | 0.00 | 60 | 1016.1 |
| 20260905235135 | 90 | 124 | 4.0 | 4.0 | 0.00 | 0.00 | 0.00 | 59 | 1016.2 |
| 20260905234630 | 91 | 117 | 4.0 | 4.0 | 0.00 | 0.00 | 0.00 | 59 | 1016.4 |
| 20260905234125 | 91 | 113 | 4.0 | 4.0 | 0.00 | 0.00 | 0.00 | 58 | 1016.3 |
| 20260905233620 | 91 | 103 | 4.0 | 4.0 | 0.00 | 0.00 | 0.00 | 57 | 1016.3 |
| 20260905233114 | 92 | 115 | 4.0 | 4.0 | 0.00 | 0.00 | 0.00 | 57 | 1016.5 |
| 20260905232610 | 92 | 93 | 2.0 | 3.0 | 0.00 | 0.00 | 0.00 | 56 | 1016.2 |
| 20260905232105 | 92 | 110 | 4.0 | 4.0 | 0.00 | 0.00 | 0.00 | 55 | 1016.2 |
| 20260905231559 | 92 | 98 | 5.0 | 6.0 | 0.00 | 0.00 | 0.00 | 55 | 1016.3 |
| 20260905231051 | 92 | 109 | 2.0 | 3.0 | 0.00 | 0.00 | 0.00 | 55 | 1016.0 |
| 20260905230550 | 93 | 115 | 4.0 | 4.0 | 0.00 | 0.00 | 0.00 | 55 | 1016.2 |
| 20260905230048 | 93 | 99 | 6.0 | 7.0 | 0.00 | 0.00 | 0.00 | 53 | 1016.2 |
| 20260905225548 | 93 | 78 | 3.0 | 3.0 | 0.00 | 0.00 | 0.00 | 54 | 1016.0 |
| 20260905225043 | 93 | 82 | 5.0 | 6.0 | 0.00 | 0.00 | 0.00 | 54 | 1016.2 |
| 20260905224538 | 93 | 111 | 2.0 | 2.0 | 0.00 | 0.00 | 0.00 | 52 | 1016.0 |
| 20260905224037 | 93 | 159 | 3.0 | 3.0 | 0.00 | 0.00 | 0.00 | 52 | 1016.1 |
| 20260905223535 | 93 | 145 | 2.0 | 2.0 | 0.00 | 0.00 | 0.00 | 52 | 1015.9 |
| 20260905223031 | 93 | 137 | 2.0 | 2.0 | 0.00 | 0.00 | 0.00 | 51 | 1016.0 |
| 20260905222530 | 93 | 141 | 1.0 | 1.0 | 0.00 | 0.00 | 0.00 | 52 | 1016.0 |
| 20260905222026 | 94 | 104 | 2.0 | 2.0 | 0.00 | 0.00 | 0.00 | 51 | 1016.0 |
| 20260905221522 | 93 | 60 | 3.0 | 2.0 | 0.00 | 0.00 | 0.00 | 50 | 1016.1 |
| 20260905221018 | 94 | 98 | 2.0 | 3.0 | 0.00 | 0.00 | 0.00 | 50 | 1016.2 |
| 20260905220514 | 94 | 161 | 3.0 | 3.0 | 0.00 | 0.00 | 0.00 | 52 | 1016.0 |
| 20260905220009 | 95 | 135 | 2.0 | 2.0 | 0.00 | 0.00 | 0.00 | 48 | 1016.0 |
| 20260905215503 | 95 | 169 | 0.0 | 0.0 | 0.00 | 0.00 | 0.00 | 51 | 1015.9 |
| 20260905215000 | 94 | 175 | 1.0 | 1.0 | 0.00 | 0.00 | 0.00 | 48 | 1015.9 |
| 20260905214455 | 94 | 161 | 3.0 | 3.0 | 0.00 | 0.00 | 0.00 | 50 | 1016.2 |
| 20260905213955 | 94 | 151 | 5.0 | 6.0 | 0.00 | 0.00 | 0.00 | 48 | 1016.2 |
| 20260905213451 | 94 | 169 | 2.0 | 2.0 | 0.00 | 0.00 | 0.00 | 50 | 1016.4 |
| 20260905212946 | 95 | 178 | 4.0 | 4.0 | 0.00 | 0.00 | 0.00 | 48 | 1016.1 |
| 20260905212441 | 95 | 236 | 2.0 | 2.0 | 0.00 | 0.00 | 0.00 | 45 | 1016.2 |
| 20260905211940 | 94 | 196 | 2.0 | 2.0 | 0.00 | 0.00 | 0.00 | 46 | 1016.4 |
| 20260905211436 | 94 | 205 | 4.0 | 4.0 | 0.00 | 0.00 | 0.00 | 45 | 1016.5 |
| 20260905210932 | 94 | 212 | 2.0 | 3.0 | 0.00 | 0.00 | 0.00 | 44 | 1016.5 |
| 20260905210432 | 94 | 216 | 3.0 | 3.0 | 0.00 | 0.00 | 0.00 | 45 | 1016.5 |
| 20260905205932 | 94 | 185 | 3.0 | 3.0 | 0.00 | 0.00 | 0.00 | 47 | 1016.6 |
| 20260905205427 | 93 | 191 | 2.0 | 2.0 | 0.00 | 0.00 | 0.00 | 47 | 1016.6 |
| 20260905204925 | 93 | 197 | 3.0 | 3.0 | 0.00 | 0.00 | 0.00 | 47 | 1016.9 |
| 20260905204422 | 92 | 198 | 3.0 | 3.0 | 0.00 | 0.00 | 0.00 | 47 | 1016.7 |
| 20260905203920 | 91 | 220 | 3.0 | 3.0 | 0.00 | 0.00 | 0.00 | 47 | 1016.9 |
| 20260905203416 | 91 | 231 | 6.0 | 6.0 | 0.00 | 0.00 | 0.00 | 47 | 1017.0 |
| 20260905202912 | 91 | 231 | 6.0 | 10.0 | 0.00 | 0.00 | 0.00 | 49 | 1017.0 |
| 20260905202407 | 94 | 198 | 11.0 | 13.0 | 0.00 | 0.00 | 0.00 | 49 | 1017.1 |
| 20260905201902 | 95 | 148 | 3.0 | 3.0 | 0.00 | 0.00 | 0.00 | 52 | 1016.9 |
| 20260905201358 | 94 | 80 | 3.0 | 6.0 | 0.00 | 0.00 | 0.00 | 52 | 1016.9 |
| 20260905200857 | 94 | 121 | 7.0 | 7.0 | 0.00 | 0.00 | 0.00 | 52 | 1017.2 |
| 20260905200353 | 94 | 56 | 6.0 | 7.0 | 0.00 | 0.00 | 0.00 | 50 | 1017.2 |
| 20260905195851 | 94 | 69 | 4.0 | 4.0 | 0.00 | 0.00 | 0.00 | 55 | 1017.4 |
| 20260905195347 | 93 | 72 | 4.0 | 6.0 | 0.00 | 0.00 | 0.00 | 55 | 1017.6 |
| 20260905194843 | 92 | 66 | 3.0 | 3.0 | 0.00 | 0.00 | 0.00 | 57 | 1017.4 |
| 20260905194342 | 93 | 42 | 5.0 | 6.0 | 0.00 | 0.00 | 0.00 | 56 | 1017.6 |
| 20260905193841 | 93 | 42 | 5.0 | 4.0 | 0.00 | 0.00 | 0.00 | 56 | 1017.4 |
| 20260905193336 | 93 | 34 | 6.0 | 8.0 | 0.00 | 0.00 | 0.00 | 57 | 1017.6 |
| 20260905192832 | 93 | 57 | 4.0 | 4.0 | 0.00 | 0.00 | 0.00 | 56 | 1017.6 |
| 20260905192328 | 93 | 72 | 3.0 | 6.0 | 0.00 | 0.00 | 0.00 | 56 | 1017.6 |
| 20260905191827 | 94 | 24 | 6.0 | 7.0 | 0.00 | 0.00 | 0.00 | 56 | 1017.6 |
| 20260905191326 | 95 | 28 | 8.0 | 9.0 | 0.00 | 0.00 | 0.00 | 53 | 1017.7 |
| 20260905190825 | 95 | 31 | 2.0 | 3.0 | 0.00 | 0.00 | 0.00 | 52 | 1017.8 |
| 20260905190324 | 95 | 81 | 2.0 | 3.0 | 0.00 | 0.00 | 0.00 | 51 | 1017.7 |
| 20260905185823 | 95 | 39 | 3.0 | 4.0 | 0.00 | 0.00 | 0.00 | 46 | 1017.8 |
| 20260905185319 | 95 | 36 | 5.0 | 6.0 | 0.00 | 0.00 | 0.00 | 46 | 1017.9 |
| 20260905184818 | 95 | 37 | 6.0 | 7.0 | 0.00 | 0.00 | 0.00 | 48 | 1018.0 |
| 20260905184318 | 95 | 46 | 4.0 | 3.0 | 0.00 | 0.00 | 0.00 | 51 | 1018.1 |
| 20260905183816 | 94 | 68 | 5.0 | 6.0 | 0.00 | 0.00 | 0.00 | 51 | 1017.9 |
| 20260905183312 | 93 | 58 | 5.0 | 6.0 | 0.00 | 0.00 | 0.00 | 51 | 1018.1 |
| 20260905182812 | 93 | 25 | 3.0 | 6.0 | 0.00 | 0.00 | 0.00 | 53 | 1018.1 |
| 20260905182311 | 93 | 105 | 6.0 | 7.0 | 0.00 | 0.00 | 0.00 | 51 | 1018.2 |
| 20260905181807 | 94 | 89 | 4.0 | 6.0 | 0.00 | 0.00 | 0.00 | 52 | 1018.1 |
| 20260905181307 | 94 | 28 | 1.0 | 0.0 | 0.00 | 0.00 | 0.00 | 53 | 1018.1 |
| 20260905180806 | 94 | 40 | 3.0 | 4.0 | 0.00 | 0.00 | 0.00 | 53 | 1018.2 |
| 20260905180301 | 94 | 102 | 6.0 | 6.0 | 0.00 | 0.00 | 0.00 | 51 | 1018.1 |
| 20260905175755 | 94 | 42 | 3.0 | 3.0 | 0.00 | 0.00 | 0.00 | 51 | 1018.2 |
| 20260905175250 | 94 | 69 | 2.0 | 2.0 | 0.00 | 0.00 | 0.00 | 53 | 1018.3 |
| 20260905174745 | 94 | 100 | 2.0 | 2.0 | 0.00 | 0.00 | 0.00 | 56 | 1018.3 |
| 20260905174241 | 94 | 67 | 2.0 | 2.0 | 0.00 | 0.00 | 0.00 | 53 | 1018.3 |
| 20260905173738 | 94 | 110 | 4.0 | 4.0 | 0.00 | 0.00 | 0.00 | 52 | 1018.3 |
| 20260905173233 | 94 | 28 | 3.0 | 4.0 | 0.00 | 0.00 | 0.00 | 53 | 1018.4 |
| 20260905172733 | 93 | 348 | 2.0 | 2.0 | 0.00 | 0.00 | 0.00 | 55 | 1018.4 |
| 20260905172232 | 94 | 70 | 1.0 | 1.0 | 0.00 | 0.00 | 0.00 | 53 | 1018.4 |
| 20260905171728 | 94 | 113 | 3.0 | 3.0 | 0.00 | 0.00 | 0.00 | 52 | 1018.2 |
| 20260905171224 | 94 | 186 | 0.0 | 0.0 | 0.00 | 0.00 | 0.00 | 52 | 1018.4 |